Cassels, Mississippi
Current Conditions -  °F | °C
As of 1:08 AM on Monday 22 Dec 2014 (Local Time) from KMCB Reporting Station
Haze Haze  
Wind Chill: 52°   Ceiling: 200
Heat Index: 52°   Visibility: 0.75mi
Dew Point: 51°   Wind: 8mph
Humidity: 97%   Direction: 150°SSE
Pressure: 29.92"   Gusts: NA
Location:  31.1819°N, 90.9008°W
Report Text: KMCB 220708Z AUTO 15007KT 3/4SM BR OVC002 11/11 A2992 RMK AO2 T01110106 $
Loading
Personal Weather Stations






























Interactive Weather Map New forecast layout! Learn more

10-Day Weather Forecast

Advertisements
Track Severe Weather on mobile